sensor_id;sensor_type;location;lat;lon;timestamp;P1;durP1;ratioP1;P2;durP2;ratioP2
9924;SDS011;5001;51.674;7.868;2022-12-07T00:01:19;60.13;;;40.30;;
9924;SDS011;5001;51.674;7.868;2022-12-07T00:03:47;58.03;;;38.13;;
9924;SDS011;5001;51.674;7.868;2022-12-07T00:06:15;59.80;;;38.50;;
9924;SDS011;5001;51.674;7.868;2022-12-07T00:08:44;56.63;;;38.03;;
9924;SDS011;5001;51.674;7.868;2022-12-07T00:11:12;54.17;;;36.90;;
9924;SDS011;5001;51.674;7.868;2022-12-07T00:13:41;56.00;;;37.43;;
9924;SDS011;5001;51.674;7.868;2022-12-07T00:16:10;57.40;;;36.57;;
9924;SDS011;5001;51.674;7.868;2022-12-07T00:18:39;53.23;;;35.10;;
9924;SDS011;5001;51.674;7.868;2022-12-07T00:21:09;53.83;;;36.17;;
9924;SDS011;5001;51.674;7.868;2022-12-07T00:23:36;61.63;;;38.23;;
9924;SDS011;5001;51.674;7.868;2022-12-07T00:26:08;54.17;;;36.77;;
9924;SDS011;5001;51.674;7.868;2022-12-07T00:28:37;56.20;;;38.07;;
9924;SDS011;5001;51.674;7.868;2022-12-07T00:31:09;63.10;;;39.73;;
9924;SDS011;5001;51.674;7.868;2022-12-07T00:33:37;58.43;;;37.17;;
9924;SDS011;5001;51.674;7.868;2022-12-07T00:36:06;55.73;;;36.07;;
9924;SDS011;5001;51.674;7.868;2022-12-07T00:38:36;48.73;;;34.17;;
9924;SDS011;5001;51.674;7.868;2022-12-07T00:41:14;53.30;;;33.40;;
9924;SDS011;5001;51.674;7.868;2022-12-07T00:43:43;51.40;;;34.77;;
9924;SDS011;5001;51.674;7.868;2022-12-07T00:46:12;47.63;;;33.17;;
9924;SDS011;5001;51.674;7.868;2022-12-07T00:48:40;44.73;;;32.67;;
9924;SDS011;5001;51.674;7.868;2022-12-07T00:51:07;49.20;;;32.37;;
9924;SDS011;5001;51.674;7.868;2022-12-07T00:53:36;46.80;;;32.57;;
9924;SDS011;5001;51.674;7.868;2022-12-07T00:56:07;43.53;;;30.97;;
9924;SDS011;5001;51.674;7.868;2022-12-07T00:58:37;46.10;;;31.80;;
9924;SDS011;5001;51.674;7.868;2022-12-07T01:01:05;48.37;;;31.00;;
9924;SDS011;5001;51.674;7.868;2022-12-07T01:03:34;45.77;;;30.40;;
9924;SDS011;5001;51.674;7.868;2022-12-07T01:06:02;43.70;;;29.87;;
9924;SDS011;5001;51.674;7.868;2022-12-07T01:08:29;44.87;;;29.40;;
9924;SDS011;5001;51.674;7.868;2022-12-07T01:11:04;46.03;;;29.20;;
9924;SDS011;5001;51.674;7.868;2022-12-07T01:13:33;45.13;;;29.63;;
9924;SDS011;5001;51.674;7.868;2022-12-07T01:16:02;44.33;;;28.63;;
9924;SDS011;5001;51.674;7.868;2022-12-07T01:18:32;43.60;;;29.40;;
9924;SDS011;5001;51.674;7.868;2022-12-07T01:21:04;41.80;;;29.47;;
9924;SDS011;5001;51.674;7.868;2022-12-07T01:23:32;42.93;;;28.97;;
9924;SDS011;5001;51.674;7.868;2022-12-07T01:26:01;43.83;;;28.27;;
9924;SDS011;5001;51.674;7.868;2022-12-07T01:28:30;38.67;;;29.40;;
9924;SDS011;5001;51.674;7.868;2022-12-07T01:31:01;43.60;;;29.00;;
9924;SDS011;5001;51.674;7.868;2022-12-07T01:33:31;39.60;;;28.60;;
9924;SDS011;5001;51.674;7.868;2022-12-07T01:36:23;40.83;;;28.33;;
9924;SDS011;5001;51.674;7.868;2022-12-07T01:38:48;45.50;;;28.77;;
9924;SDS011;5001;51.674;7.868;2022-12-07T01:41:19;38.43;;;26.90;;
9924;SDS011;5001;51.674;7.868;2022-12-07T01:44:09;40.57;;;27.47;;
9924;SDS011;5001;51.674;7.868;2022-12-07T01:46:53;47.13;;;28.10;;
9924;SDS011;5001;51.674;7.868;2022-12-07T01:49:24;42.93;;;29.10;;
9924;SDS011;5001;51.674;7.868;2022-12-07T01:54:49;40.13;;;27.67;;
9924;SDS011;5001;51.674;7.868;2022-12-07T01:57:18;43.57;;;28.57;;
9924;SDS011;5001;51.674;7.868;2022-12-07T01:59:47;40.03;;;26.60;;
9924;SDS011;5001;51.674;7.868;2022-12-07T02:02:22;37.60;;;26.83;;
9924;SDS011;5001;51.674;7.868;2022-12-07T02:04:53;38.63;;;25.07;;
9924;SDS011;5001;51.674;7.868;2022-12-07T02:07:22;36.03;;;25.23;;
9924;SDS011;5001;51.674;7.868;2022-12-07T02:09:50;38.87;;;26.27;;
9924;SDS011;5001;51.674;7.868;2022-12-07T02:12:17;39.23;;;28.17;;
9924;SDS011;5001;51.674;7.868;2022-12-07T02:14:44;37.80;;;26.63;;
9924;SDS011;5001;51.674;7.868;2022-12-07T02:17:14;38.87;;;26.17;;
9924;SDS011;5001;51.674;7.868;2022-12-07T02:27:56;36.97;;;23.80;;
9924;SDS011;5001;51.674;7.868;2022-12-07T02:30:45;34.20;;;23.57;;
9924;SDS011;5001;51.674;7.868;2022-12-07T02:36:30;37.03;;;24.40;;
9924;SDS011;5001;51.674;7.868;2022-12-07T02:39:11;34.03;;;23.90;;
9924;SDS011;5001;51.674;7.868;2022-12-07T02:41:44;34.23;;;24.43;;
9924;SDS011;5001;51.674;7.868;2022-12-07T02:44:17;38.33;;;23.40;;
9924;SDS011;5001;51.674;7.868;2022-12-07T02:46:53;38.40;;;23.87;;
9924;SDS011;5001;51.674;7.868;2022-12-07T02:49:25;33.43;;;23.77;;
9924;SDS011;5001;51.674;7.868;2022-12-07T02:51:54;37.47;;;24.97;;
9924;SDS011;5001;51.674;7.868;2022-12-07T02:54:21;40.00;;;24.47;;
9924;SDS011;5001;51.674;7.868;2022-12-07T02:57:12;31.97;;;23.10;;
9924;SDS011;5001;51.674;7.868;2022-12-07T03:00:04;34.77;;;23.53;;
9924;SDS011;5001;51.674;7.868;2022-12-07T03:19:26;32.57;;;21.40;;
9924;SDS011;5001;51.674;7.868;2022-12-07T03:21:55;34.33;;;23.20;;
9924;SDS011;5001;51.674;7.868;2022-12-07T03:24:26;33.83;;;22.90;;
9924;SDS011;5001;51.674;7.868;2022-12-07T03:26:58;33.93;;;22.07;;
9924;SDS011;5001;51.674;7.868;2022-12-07T03:29:49;35.47;;;22.80;;
9924;SDS011;5001;51.674;7.868;2022-12-07T03:38:06;39.80;;;24.27;;
9924;SDS011;5001;51.674;7.868;2022-12-07T03:43:30;32.77;;;23.13;;
9924;SDS011;5001;51.674;7.868;2022-12-07T03:51:46;40.70;;;25.00;;
9924;SDS011;5001;51.674;7.868;2022-12-07T03:57:17;36.87;;;23.93;;
9924;SDS011;5001;51.674;7.868;2022-12-07T03:59:45;40.63;;;26.13;;
9924;SDS011;5001;51.674;7.868;2022-12-07T04:02:12;40.20;;;25.90;;
9924;SDS011;5001;51.674;7.868;2022-12-07T04:04:40;45.70;;;28.63;;
9924;SDS011;5001;51.674;7.868;2022-12-07T04:07:09;42.00;;;28.30;;
9924;SDS011;5001;51.674;7.868;2022-12-07T04:09:36;48.00;;;29.20;;
9924;SDS011;5001;51.674;7.868;2022-12-07T04:12:03;47.67;;;28.20;;
9924;SDS011;5001;51.674;7.868;2022-12-07T04:14:30;46.17;;;28.43;;
9924;SDS011;5001;51.674;7.868;2022-12-07T04:16:57;37.33;;;24.67;;
9924;SDS011;5001;51.674;7.868;2022-12-07T04:19:26;45.40;;;27.70;;
9924;SDS011;5001;51.674;7.868;2022-12-07T04:21:55;44.30;;;27.80;;
9924;SDS011;5001;51.674;7.868;2022-12-07T04:24:23;42.93;;;27.07;;
9924;SDS011;5001;51.674;7.868;2022-12-07T04:26:51;43.87;;;27.47;;
9924;SDS011;5001;51.674;7.868;2022-12-07T04:29:18;43.40;;;27.27;;
9924;SDS011;5001;51.674;7.868;2022-12-07T04:31:45;49.30;;;29.40;;
9924;SDS011;5001;51.674;7.868;2022-12-07T04:34:13;40.50;;;27.57;;
9924;SDS011;5001;51.674;7.868;2022-12-07T04:36:41;47.37;;;27.20;;
9924;SDS011;5001;51.674;7.868;2022-12-07T04:39:13;44.60;;;28.30;;
9924;SDS011;5001;51.674;7.868;2022-12-07T04:41:59;43.33;;;27.67;;
9924;SDS011;5001;51.674;7.868;2022-12-07T04:44:29;49.20;;;27.97;;
9924;SDS011;5001;51.674;7.868;2022-12-07T04:46:56;50.83;;;29.23;;
9924;SDS011;5001;51.674;7.868;2022-12-07T04:49:24;61.63;;;34.87;;
9924;SDS011;5001;51.674;7.868;2022-12-07T04:51:51;46.60;;;27.77;;
9924;SDS011;5001;51.674;7.868;2022-12-07T04:54:18;49.23;;;28.63;;
9924;SDS011;5001;51.674;7.868;2022-12-07T04:56:46;48.70;;;28.00;;
9924;SDS011;5001;51.674;7.868;2022-12-07T04:59:14;47.37;;;28.70;;
9924;SDS011;5001;51.674;7.868;2022-12-07T05:01:42;45.40;;;27.57;;
9924;SDS011;5001;51.674;7.868;2022-12-07T05:04:09;50.47;;;28.70;;
9924;SDS011;5001;51.674;7.868;2022-12-07T05:06:37;52.27;;;27.47;;
9924;SDS011;5001;51.674;7.868;2022-12-07T05:09:04;52.93;;;27.37;;
9924;SDS011;5001;51.674;7.868;2022-12-07T05:11:31;48.30;;;29.30;;
9924;SDS011;5001;51.674;7.868;2022-12-07T05:14:22;50.53;;;28.57;;
9924;SDS011;5001;51.674;7.868;2022-12-07T05:16:50;50.13;;;27.70;;
9924;SDS011;5001;51.674;7.868;2022-12-07T05:19:18;45.87;;;26.67;;
9924;SDS011;5001;51.674;7.868;2022-12-07T05:21:45;49.67;;;27.57;;
9924;SDS011;5001;51.674;7.868;2022-12-07T05:24:13;47.10;;;28.23;;
9924;SDS011;5001;51.674;7.868;2022-12-07T05:26:41;47.60;;;28.60;;
9924;SDS011;5001;51.674;7.868;2022-12-07T05:29:11;51.50;;;27.87;;
9924;SDS011;5001;51.674;7.868;2022-12-07T05:31:39;50.77;;;29.10;;
9924;SDS011;5001;51.674;7.868;2022-12-07T05:34:06;47.83;;;29.70;;
9924;SDS011;5001;51.674;7.868;2022-12-07T05:36:33;48.13;;;29.67;;
9924;SDS011;5001;51.674;7.868;2022-12-07T05:39:00;53.63;;;30.07;;
9924;SDS011;5001;51.674;7.868;2022-12-07T05:41:27;53.23;;;29.23;;
9924;SDS011;5001;51.674;7.868;2022-12-07T05:44:13;50.33;;;29.30;;
9924;SDS011;5001;51.674;7.868;2022-12-07T05:46:40;45.57;;;28.63;;
9924;SDS011;5001;51.674;7.868;2022-12-07T05:49:07;46.23;;;29.57;;
9924;SDS011;5001;51.674;7.868;2022-12-07T05:51:34;56.10;;;28.33;;
9924;SDS011;5001;51.674;7.868;2022-12-07T05:54:01;56.83;;;30.53;;
9924;SDS011;5001;51.674;7.868;2022-12-07T05:56:28;50.60;;;27.90;;
9924;SDS011;5001;51.674;7.868;2022-12-07T05:58:55;46.60;;;29.03;;
9924;SDS011;5001;51.674;7.868;2022-12-07T06:01:40;48.50;;;29.83;;
9924;SDS011;5001;51.674;7.868;2022-12-07T06:04:07;53.83;;;31.00;;
9924;SDS011;5001;51.674;7.868;2022-12-07T06:06:34;62.07;;;31.53;;
9924;SDS011;5001;51.674;7.868;2022-12-07T06:09:02;54.27;;;27.33;;
9924;SDS011;5001;51.674;7.868;2022-12-07T06:11:29;55.33;;;29.00;;
9924;SDS011;5001;51.674;7.868;2022-12-07T06:14:15;48.63;;;27.07;;
9924;SDS011;5001;51.674;7.868;2022-12-07T06:16:42;44.90;;;27.23;;
9924;SDS011;5001;51.674;7.868;2022-12-07T06:19:09;46.10;;;25.33;;
9924;SDS011;5001;51.674;7.868;2022-12-07T06:21:36;46.90;;;24.87;;
9924;SDS011;5001;51.674;7.868;2022-12-07T06:24:03;41.83;;;25.87;;
9924;SDS011;5001;51.674;7.868;2022-12-07T06:26:30;51.07;;;24.77;;
9924;SDS011;5001;51.674;7.868;2022-12-07T06:28:58;41.83;;;23.87;;
9924;SDS011;5001;51.674;7.868;2022-12-07T06:31:25;44.80;;;23.87;;
9924;SDS011;5001;51.674;7.868;2022-12-07T06:33:56;39.00;;;23.53;;
9924;SDS011;5001;51.674;7.868;2022-12-07T06:36:27;42.93;;;24.17;;
9924;SDS011;5001;51.674;7.868;2022-12-07T06:38:54;40.90;;;22.60;;
9924;SDS011;5001;51.674;7.868;2022-12-07T06:41:22;40.87;;;22.57;;
9924;SDS011;5001;51.674;7.868;2022-12-07T06:43:49;37.43;;;22.53;;
9924;SDS011;5001;51.674;7.868;2022-12-07T06:46:21;37.67;;;21.30;;
9924;SDS011;5001;51.674;7.868;2022-12-07T06:48:49;40.50;;;23.47;;
9924;SDS011;5001;51.674;7.868;2022-12-07T06:51:16;39.93;;;23.33;;
9924;SDS011;5001;51.674;7.868;2022-12-07T06:53:43;40.40;;;23.43;;
9924;SDS011;5001;51.674;7.868;2022-12-07T06:56:10;39.13;;;23.33;;
9924;SDS011;5001;51.674;7.868;2022-12-07T06:58:38;48.67;;;23.60;;
9924;SDS011;5001;51.674;7.868;2022-12-07T07:01:13;40.67;;;23.27;;
9924;SDS011;5001;51.674;7.868;2022-12-07T07:03:41;46.60;;;25.40;;
9924;SDS011;5001;51.674;7.868;2022-12-07T07:06:09;41.67;;;24.47;;
9924;SDS011;5001;51.674;7.868;2022-12-07T07:08:37;42.17;;;22.87;;
9924;SDS011;5001;51.674;7.868;2022-12-07T07:11:06;45.17;;;24.13;;
9924;SDS011;5001;51.674;7.868;2022-12-07T07:13:34;37.43;;;22.43;;
9924;SDS011;5001;51.674;7.868;2022-12-07T07:16:01;41.27;;;23.93;;
9924;SDS011;5001;51.674;7.868;2022-12-07T07:18:28;38.43;;;23.73;;
9924;SDS011;5001;51.674;7.868;2022-12-07T07:20:55;41.53;;;23.27;;
9924;SDS011;5001;51.674;7.868;2022-12-07T07:23:22;42.50;;;24.20;;
9924;SDS011;5001;51.674;7.868;2022-12-07T07:25:49;43.43;;;25.17;;
9924;SDS011;5001;51.674;7.868;2022-12-07T07:28:16;48.03;;;25.37;;
9924;SDS011;5001;51.674;7.868;2022-12-07T07:30:43;45.30;;;25.27;;
9924;SDS011;5001;51.674;7.868;2022-12-07T07:33:11;45.67;;;25.30;;
9924;SDS011;5001;51.674;7.868;2022-12-07T07:35:39;45.43;;;24.63;;
9924;SDS011;5001;51.674;7.868;2022-12-07T07:38:06;45.60;;;25.60;;
9924;SDS011;5001;51.674;7.868;2022-12-07T07:40:33;45.40;;;26.40;;
9924;SDS011;5001;51.674;7.868;2022-12-07T07:43:00;47.97;;;25.17;;
9924;SDS011;5001;51.674;7.868;2022-12-07T07:45:27;42.77;;;24.87;;
9924;SDS011;5001;51.674;7.868;2022-12-07T07:47:55;44.03;;;25.27;;
9924;SDS011;5001;51.674;7.868;2022-12-07T07:50:22;46.63;;;25.83;;
9924;SDS011;5001;51.674;7.868;2022-12-07T07:52:48;45.13;;;26.33;;
9924;SDS011;5001;51.674;7.868;2022-12-07T07:55:20;41.13;;;24.77;;
9924;SDS011;5001;51.674;7.868;2022-12-07T07:57:47;49.17;;;27.53;;
9924;SDS011;5001;51.674;7.868;2022-12-07T08:00:20;43.47;;;26.47;;
9924;SDS011;5001;51.674;7.868;2022-12-07T08:02:47;43.77;;;25.57;;
9924;SDS011;5001;51.674;7.868;2022-12-07T08:05:14;44.00;;;25.00;;
9924;SDS011;5001;51.674;7.868;2022-12-07T08:07:41;49.00;;;26.10;;
9924;SDS011;5001;51.674;7.868;2022-12-07T08:10:10;42.63;;;25.83;;
9924;SDS011;5001;51.674;7.868;2022-12-07T08:12:39;40.57;;;25.13;;
9924;SDS011;5001;51.674;7.868;2022-12-07T08:15:27;41.87;;;25.17;;
9924;SDS011;5001;51.674;7.868;2022-12-07T08:17:56;42.37;;;24.80;;
9924;SDS011;5001;51.674;7.868;2022-12-07T08:20:23;43.70;;;24.93;;
9924;SDS011;5001;51.674;7.868;2022-12-07T08:22:50;46.87;;;25.53;;
9924;SDS011;5001;51.674;7.868;2022-12-07T08:25:18;44.20;;;27.10;;
9924;SDS011;5001;51.674;7.868;2022-12-07T08:27:45;46.77;;;25.83;;
9924;SDS011;5001;51.674;7.868;2022-12-07T08:30:12;40.17;;;24.17;;
9924;SDS011;5001;51.674;7.868;2022-12-07T08:32:40;45.00;;;24.40;;
9924;SDS011;5001;51.674;7.868;2022-12-07T08:35:07;38.83;;;24.83;;
9924;SDS011;5001;51.674;7.868;2022-12-07T08:37:34;31.90;;;22.67;;
9924;SDS011;5001;51.674;7.868;2022-12-07T08:40:02;34.47;;;22.67;;
9924;SDS011;5001;51.674;7.868;2022-12-07T08:42:31;30.80;;;21.83;;
9924;SDS011;5001;51.674;7.868;2022-12-07T08:45:07;35.63;;;22.40;;
9924;SDS011;5001;51.674;7.868;2022-12-07T08:47:37;35.60;;;21.97;;
9924;SDS011;5001;51.674;7.868;2022-12-07T08:50:08;49.00;;;32.07;;
9924;SDS011;5001;51.674;7.868;2022-12-07T08:52:37;40.37;;;26.97;;
9924;SDS011;5001;51.674;7.868;2022-12-07T08:55:06;28.17;;;21.27;;
9924;SDS011;5001;51.674;7.868;2022-12-07T08:57:33;26.93;;;17.60;;
9924;SDS011;5001;51.674;7.868;2022-12-07T09:00:02;27.37;;;15.33;;
9924;SDS011;5001;51.674;7.868;2022-12-07T09:02:31;19.83;;;15.23;;
9924;SDS011;5001;51.674;7.868;2022-12-07T09:04:58;20.67;;;14.00;;
9924;SDS011;5001;51.674;7.868;2022-12-07T09:07:25;20.77;;;13.73;;
9924;SDS011;5001;51.674;7.868;2022-12-07T09:09:53;23.10;;;14.07;;
9924;SDS011;5001;51.674;7.868;2022-12-07T09:12:20;28.57;;;14.10;;
9924;SDS011;5001;51.674;7.868;2022-12-07T09:14:47;24.83;;;14.50;;
9924;SDS011;5001;51.674;7.868;2022-12-07T09:17:14;26.57;;;16.67;;
9924;SDS011;5001;51.674;7.868;2022-12-07T09:19:41;17.87;;;11.43;;
9924;SDS011;5001;51.674;7.868;2022-12-07T09:22:08;14.53;;;8.53;;
9924;SDS011;5001;51.674;7.868;2022-12-07T09:24:36;10.03;;;6.83;;
9924;SDS011;5001;51.674;7.868;2022-12-07T09:27:02;11.20;;;6.57;;
9924;SDS011;5001;51.674;7.868;2022-12-07T09:29:29;14.30;;;9.17;;
9924;SDS011;5001;51.674;7.868;2022-12-07T09:31:56;8.35;;;6.05;;
9924;SDS011;5001;51.674;7.868;2022-12-07T09:34:23;7.57;;;5.50;;
9924;SDS011;5001;51.674;7.868;2022-12-07T09:36:52;11.82;;;5.72;;
9924;SDS011;5001;51.674;7.868;2022-12-07T09:39:19;9.93;;;5.18;;
9924;SDS011;5001;51.674;7.868;2022-12-07T09:41:46;8.30;;;5.07;;
9924;SDS011;5001;51.674;7.868;2022-12-07T09:44:23;12.35;;;5.93;;
9924;SDS011;5001;51.674;7.868;2022-12-07T09:46:51;9.13;;;5.35;;
9924;SDS011;5001;51.674;7.868;2022-12-07T09:49:20;7.28;;;4.70;;
9924;SDS011;5001;51.674;7.868;2022-12-07T09:52:04;9.15;;;4.95;;
9924;SDS011;5001;51.674;7.868;2022-12-07T09:54:56;9.73;;;5.43;;
9924;SDS011;5001;51.674;7.868;2022-12-07T09:57:32;6.45;;;5.03;;
9924;SDS011;5001;51.674;7.868;2022-12-07T10:00:03;9.18;;;5.32;;
9924;SDS011;5001;51.674;7.868;2022-12-07T10:05:13;12.93;;;6.83;;
9924;SDS011;5001;51.674;7.868;2022-12-07T10:07:49;10.73;;;7.20;;
9924;SDS011;5001;51.674;7.868;2022-12-07T10:10:28;13.13;;;7.00;;
9924;SDS011;5001;51.674;7.868;2022-12-07T10:13:13;16.67;;;7.93;;
9924;SDS011;5001;51.674;7.868;2022-12-07T10:18:37;12.20;;;10.00;;
9924;SDS011;5001;51.674;7.868;2022-12-07T10:23:43;13.57;;;7.23;;
9924;SDS011;5001;51.674;7.868;2022-12-07T10:28:55;11.13;;;8.10;;
9924;SDS011;5001;51.674;7.868;2022-12-07T10:31:25;11.20;;;7.33;;
9924;SDS011;5001;51.674;7.868;2022-12-07T10:34:00;15.80;;;8.27;;
9924;SDS011;5001;51.674;7.868;2022-12-07T10:36:35;16.03;;;9.93;;
9924;SDS011;5001;51.674;7.868;2022-12-07T10:39:11;12.07;;;7.40;;
9924;SDS011;5001;51.674;7.868;2022-12-07T10:41:57;12.77;;;8.00;;
9924;SDS011;5001;51.674;7.868;2022-12-07T10:44:26;12.43;;;7.93;;
9924;SDS011;5001;51.674;7.868;2022-12-07T10:49:54;9.30;;;5.80;;
9924;SDS011;5001;51.674;7.868;2022-12-07T11:01:22;9.73;;;5.63;;
9924;SDS011;5001;51.674;7.868;2022-12-07T11:04:02;11.80;;;5.80;;
9924;SDS011;5001;51.674;7.868;2022-12-07T11:18:11;10.40;;;4.00;;
9924;SDS011;5001;51.674;7.868;2022-12-07T11:26:15;12.73;;;4.37;;
9924;SDS011;5001;51.674;7.868;2022-12-07T11:34:31;8.43;;;4.20;;
9924;SDS011;5001;51.674;7.868;2022-12-07T11:37:08;8.10;;;5.30;;
9924;SDS011;5001;51.674;7.868;2022-12-07T11:39:51;9.77;;;3.47;;
9924;SDS011;5001;51.674;7.868;2022-12-07T11:42:26;7.50;;;3.60;;
9924;SDS011;5001;51.674;7.868;2022-12-07T11:44:59;8.80;;;3.80;;
9924;SDS011;5001;51.674;7.868;2022-12-07T11:50:25;7.33;;;3.50;;
9924;SDS011;5001;51.674;7.868;2022-12-07T11:52:55;5.77;;;3.23;;
9924;SDS011;5001;51.674;7.868;2022-12-07T11:55:42;8.73;;;3.90;;
9924;SDS011;5001;51.674;7.868;2022-12-07T12:03:45;10.40;;;4.60;;
9924;SDS011;5001;51.674;7.868;2022-12-07T12:06:39;10.33;;;3.60;;
9924;SDS011;5001;51.674;7.868;2022-12-07T12:09:14;11.87;;;4.40;;
9924;SDS011;5001;51.674;7.868;2022-12-07T12:23:15;13.17;;;5.87;;
9924;SDS011;5001;51.674;7.868;2022-12-07T12:26:17;13.63;;;5.53;;
9924;SDS011;5001;51.674;7.868;2022-12-07T12:29:36;7.37;;;3.87;;
9924;SDS011;5001;51.674;7.868;2022-12-07T12:34:34;9.90;;;4.17;;
9924;SDS011;5001;51.674;7.868;2022-12-07T12:42:50;10.13;;;4.37;;
9924;SDS011;5001;51.674;7.868;2022-12-07T12:47:58;13.90;;;3.03;;
9924;SDS011;5001;51.674;7.868;2022-12-07T12:51:06;6.50;;;3.70;;
9924;SDS011;5001;51.674;7.868;2022-12-07T12:54:08;7.73;;;3.87;;
9924;SDS011;5001;51.674;7.868;2022-12-07T12:56:42;11.10;;;4.27;;
9924;SDS011;5001;51.674;7.868;2022-12-07T12:59:22;9.27;;;3.30;;
9924;SDS011;5001;51.674;7.868;2022-12-07T13:01:50;7.50;;;3.20;;
9924;SDS011;5001;51.674;7.868;2022-12-07T13:06:53;9.80;;;4.47;;
9924;SDS011;5001;51.674;7.868;2022-12-07T13:12:00;9.43;;;6.17;;
9924;SDS011;5001;51.674;7.868;2022-12-07T13:19:59;8.13;;;3.87;;
9924;SDS011;5001;51.674;7.868;2022-12-07T13:27:57;13.53;;;6.67;;
9924;SDS011;5001;51.674;7.868;2022-12-07T13:30:33;15.20;;;10.00;;
9924;SDS011;5001;51.674;7.868;2022-12-07T13:33:17;9.33;;;5.60;;
9924;SDS011;5001;51.674;7.868;2022-12-07T13:35:45;8.77;;;3.83;;
9924;SDS011;5001;51.674;7.868;2022-12-07T13:38:22;16.30;;;6.83;;
9924;SDS011;5001;51.674;7.868;2022-12-07T13:41:00;14.97;;;5.57;;
9924;SDS011;5001;51.674;7.868;2022-12-07T13:43:29;10.03;;;4.47;;
9924;SDS011;5001;51.674;7.868;2022-12-07T13:45:57;11.10;;;4.90;;
9924;SDS011;5001;51.674;7.868;2022-12-07T13:48:30;9.53;;;3.80;;
9924;SDS011;5001;51.674;7.868;2022-12-07T13:51:02;9.70;;;5.77;;
9924;SDS011;5001;51.674;7.868;2022-12-07T13:53:30;14.53;;;4.90;;
9924;SDS011;5001;51.674;7.868;2022-12-07T13:55:57;13.40;;;4.47;;
9924;SDS011;5001;51.674;7.868;2022-12-07T13:58:27;9.90;;;5.00;;
9924;SDS011;5001;51.674;7.868;2022-12-07T14:00:57;14.27;;;8.47;;
9924;SDS011;5001;51.674;7.868;2022-12-07T14:03:30;9.17;;;5.17;;
9924;SDS011;5001;51.674;7.868;2022-12-07T14:06:06;14.30;;;5.30;;
9924;SDS011;5001;51.674;7.868;2022-12-07T14:09:05;11.53;;;4.60;;
9924;SDS011;5001;51.674;7.868;2022-12-07T14:11:44;9.40;;;3.93;;
9924;SDS011;5001;51.674;7.868;2022-12-07T14:14:15;10.07;;;4.23;;
9924;SDS011;5001;51.674;7.868;2022-12-07T14:16:59;8.73;;;4.20;;
9924;SDS011;5001;51.674;7.868;2022-12-07T14:27:50;10.57;;;5.30;;
9924;SDS011;5001;51.674;7.868;2022-12-07T14:30:22;12.70;;;5.63;;
9924;SDS011;5001;51.674;7.868;2022-12-07T14:32:53;11.93;;;5.30;;
9924;SDS011;5001;51.674;7.868;2022-12-07T14:35:23;12.83;;;6.17;;
9924;SDS011;5001;51.674;7.868;2022-12-07T14:37:50;11.67;;;6.67;;
9924;SDS011;5001;51.674;7.868;2022-12-07T14:40:21;8.97;;;6.27;;
9924;SDS011;5001;51.674;7.868;2022-12-07T14:42:51;10.33;;;5.47;;
9924;SDS011;5001;51.674;7.868;2022-12-07T14:45:22;15.33;;;5.73;;
9924;SDS011;5001;51.674;7.868;2022-12-07T14:47:49;14.03;;;5.07;;
9924;SDS011;5001;51.674;7.868;2022-12-07T14:50:37;14.53;;;5.37;;
9924;SDS011;5001;51.674;7.868;2022-12-07T14:53:29;11.50;;;5.93;;
9924;SDS011;5001;51.674;7.868;2022-12-07T14:56:00;15.83;;;6.20;;
9924;SDS011;5001;51.674;7.868;2022-12-07T14:58:28;11.07;;;5.33;;
9924;SDS011;5001;51.674;7.868;2022-12-07T15:00:55;9.33;;;5.07;;
9924;SDS011;5001;51.674;7.868;2022-12-07T15:03:22;6.93;;;4.47;;
9924;SDS011;5001;51.674;7.868;2022-12-07T15:05:49;11.40;;;4.47;;
9924;SDS011;5001;51.674;7.868;2022-12-07T15:08:16;11.07;;;4.93;;
9924;SDS011;5001;51.674;7.868;2022-12-07T15:10:44;10.17;;;7.27;;
9924;SDS011;5001;51.674;7.868;2022-12-07T15:13:12;10.60;;;5.77;;
9924;SDS011;5001;51.674;7.868;2022-12-07T15:15:58;14.83;;;6.97;;
9924;SDS011;5001;51.674;7.868;2022-12-07T15:18:26;11.73;;;5.77;;
9924;SDS011;5001;51.674;7.868;2022-12-07T15:20:53;11.07;;;5.17;;
9924;SDS011;5001;51.674;7.868;2022-12-07T15:23:20;10.17;;;5.77;;
9924;SDS011;5001;51.674;7.868;2022-12-07T15:25:48;11.87;;;7.20;;
9924;SDS011;5001;51.674;7.868;2022-12-07T15:28:15;14.63;;;5.83;;
9924;SDS011;5001;51.674;7.868;2022-12-07T15:30:45;10.53;;;4.33;;
9924;SDS011;5001;51.674;7.868;2022-12-07T15:33:13;11.63;;;5.20;;
9924;SDS011;5001;51.674;7.868;2022-12-07T15:35:41;11.63;;;5.90;;
9924;SDS011;5001;51.674;7.868;2022-12-07T15:38:09;15.87;;;6.43;;
9924;SDS011;5001;51.674;7.868;2022-12-07T15:40:37;10.90;;;6.97;;
9924;SDS011;5001;51.674;7.868;2022-12-07T15:43:05;21.93;;;13.33;;
9924;SDS011;5001;51.674;7.868;2022-12-07T15:45:52;14.80;;;5.63;;
9924;SDS011;5001;51.674;7.868;2022-12-07T15:48:19;13.70;;;4.70;;
9924;SDS011;5001;51.674;7.868;2022-12-07T15:51:05;11.10;;;5.13;;
9924;SDS011;5001;51.674;7.868;2022-12-07T15:53:33;12.93;;;6.67;;
9924;SDS011;5001;51.674;7.868;2022-12-07T15:56:01;11.67;;;6.10;;
9924;SDS011;5001;51.674;7.868;2022-12-07T15:58:32;14.50;;;8.37;;
9924;SDS011;5001;51.674;7.868;2022-12-07T16:00:59;15.03;;;6.87;;
9924;SDS011;5001;51.674;7.868;2022-12-07T16:03:29;9.13;;;5.10;;
9924;SDS011;5001;51.674;7.868;2022-12-07T16:05:56;12.70;;;5.40;;
9924;SDS011;5001;51.674;7.868;2022-12-07T16:08:23;12.37;;;5.30;;
9924;SDS011;5001;51.674;7.868;2022-12-07T16:10:50;12.90;;;4.93;;
9924;SDS011;5001;51.674;7.868;2022-12-07T16:13:17;10.17;;;6.03;;
9924;SDS011;5001;51.674;7.868;2022-12-07T16:15:45;15.43;;;5.80;;
9924;SDS011;5001;51.674;7.868;2022-12-07T16:18:12;15.27;;;7.37;;
9924;SDS011;5001;51.674;7.868;2022-12-07T16:20:39;13.77;;;7.73;;
9924;SDS011;5001;51.674;7.868;2022-12-07T16:23:09;17.83;;;7.73;;
9924;SDS011;5001;51.674;7.868;2022-12-07T16:25:36;15.63;;;6.70;;
9924;SDS011;5001;51.674;7.868;2022-12-07T16:28:03;12.03;;;6.53;;
9924;SDS011;5001;51.674;7.868;2022-12-07T16:30:30;17.10;;;10.00;;
9924;SDS011;5001;51.674;7.868;2022-12-07T16:32:57;14.53;;;7.00;;
9924;SDS011;5001;51.674;7.868;2022-12-07T16:35:28;16.20;;;5.93;;
9924;SDS011;5001;51.674;7.868;2022-12-07T16:37:55;17.13;;;7.97;;
9924;SDS011;5001;51.674;7.868;2022-12-07T16:40:22;18.87;;;10.60;;
9924;SDS011;5001;51.674;7.868;2022-12-07T16:42:52;18.93;;;10.10;;
9924;SDS011;5001;51.674;7.868;2022-12-07T16:45:19;17.60;;;7.93;;
9924;SDS011;5001;51.674;7.868;2022-12-07T16:47:46;16.50;;;9.70;;
9924;SDS011;5001;51.674;7.868;2022-12-07T16:50:13;17.20;;;9.23;;
9924;SDS011;5001;51.674;7.868;2022-12-07T16:52:40;28.13;;;15.37;;
9924;SDS011;5001;51.674;7.868;2022-12-07T16:55:08;21.73;;;9.87;;
9924;SDS011;5001;51.674;7.868;2022-12-07T16:57:35;14.70;;;9.47;;
9924;SDS011;5001;51.674;7.868;2022-12-07T17:00:02;16.03;;;7.20;;
9924;SDS011;5001;51.674;7.868;2022-12-07T17:02:30;16.50;;;7.70;;
9924;SDS011;5001;51.674;7.868;2022-12-07T17:04:57;13.87;;;7.50;;
9924;SDS011;5001;51.674;7.868;2022-12-07T17:07:24;12.03;;;7.10;;
9924;SDS011;5001;51.674;7.868;2022-12-07T17:09:52;13.23;;;8.73;;
9924;SDS011;5001;51.674;7.868;2022-12-07T17:12:19;10.77;;;9.27;;
9924;SDS011;5001;51.674;7.868;2022-12-07T17:14:46;19.60;;;9.33;;
9924;SDS011;5001;51.674;7.868;2022-12-07T17:17:33;18.53;;;8.73;;
9924;SDS011;5001;51.674;7.868;2022-12-07T17:20:00;15.70;;;9.90;;
9924;SDS011;5001;51.674;7.868;2022-12-07T17:22:30;18.37;;;9.27;;
9924;SDS011;5001;51.674;7.868;2022-12-07T17:24:57;17.63;;;11.57;;
9924;SDS011;5001;51.674;7.868;2022-12-07T17:27:24;26.00;;;13.00;;
9924;SDS011;5001;51.674;7.868;2022-12-07T17:29:51;15.70;;;8.70;;
9924;SDS011;5001;51.674;7.868;2022-12-07T17:32:23;10.70;;;7.13;;
9924;SDS011;5001;51.674;7.868;2022-12-07T17:34:50;15.27;;;8.10;;
9924;SDS011;5001;51.674;7.868;2022-12-07T17:37:17;23.67;;;9.43;;
9924;SDS011;5001;51.674;7.868;2022-12-07T17:39:46;14.63;;;8.07;;
9924;SDS011;5001;51.674;7.868;2022-12-07T17:42:13;13.63;;;7.70;;
9924;SDS011;5001;51.674;7.868;2022-12-07T17:45:06;19.27;;;8.10;;
9924;SDS011;5001;51.674;7.868;2022-12-07T17:47:36;11.30;;;7.57;;